sensor_id;sensor_type;location;lat;lon;timestamp;temperature;humidity
45207;DHT22;30950;53.086;21.576;2023-04-03T00:01:15;1.50;99.90
45207;DHT22;30950;53.086;21.576;2023-04-03T00:03:42;1.50;99.90
45207;DHT22;30950;53.086;21.576;2023-04-03T00:06:10;1.50;99.90
45207;DHT22;30950;53.086;21.576;2023-04-03T00:08:39;1.40;99.90
45207;DHT22;30950;53.086;21.576;2023-04-03T00:11:07;1.40;99.90
45207;DHT22;30950;53.086;21.576;2023-04-03T00:13:36;1.40;99.90
45207;DHT22;30950;53.086;21.576;2023-04-03T00:16:04;1.30;99.90
45207;DHT22;30950;53.086;21.576;2023-04-03T00:18:31;1.30;99.90
45207;DHT22;30950;53.086;21.576;2023-04-03T00:20:59;1.30;99.90
45207;DHT22;30950;53.086;21.576;2023-04-03T00:23:26;1.20;99.90
45207;DHT22;30950;53.086;21.576;2023-04-03T00:25:54;1.20;99.90
45207;DHT22;30950;53.086;21.576;2023-04-03T00:28:21;1.10;99.90
45207;DHT22;30950;53.086;21.576;2023-04-03T00:30:49;1.10;99.90
45207;DHT22;30950;53.086;21.576;2023-04-03T00:33:17;1.10;99.90
45207;DHT22;30950;53.086;21.576;2023-04-03T00:35:44;1.10;99.90
45207;DHT22;30950;53.086;21.576;2023-04-03T00:38:11;1.00;99.90
45207;DHT22;30950;53.086;21.576;2023-04-03T00:40:43;1.00;99.90
45207;DHT22;30950;53.086;21.576;2023-04-03T00:43:17;1.00;99.90
45207;DHT22;30950;53.086;21.576;2023-04-03T00:45:47;1.00;99.90
45207;DHT22;30950;53.086;21.576;2023-04-03T00:49:00;0.90;99.90
45207;DHT22;30950;53.086;21.576;2023-04-03T00:51:23;0.90;99.90
45207;DHT22;30950;53.086;21.576;2023-04-03T00:53:58;0.80;99.90
45207;DHT22;30950;53.086;21.576;2023-04-03T00:56:27;0.80;99.90
45207;DHT22;30950;53.086;21.576;2023-04-03T00:58:59;0.80;99.90
45207;DHT22;30950;53.086;21.576;2023-04-03T01:01:28;0.70;99.90
45207;DHT22;30950;53.086;21.576;2023-04-03T01:03:58;0.70;99.90
45207;DHT22;30950;53.086;21.576;2023-04-03T01:06:29;0.70;99.90
45207;DHT22;30950;53.086;21.576;2023-04-03T01:09:04;0.90;99.90
45207;DHT22;30950;53.086;21.576;2023-04-03T01:11:33;0.60;99.90
45207;DHT22;30950;53.086;21.576;2023-04-03T01:14:01;0.60;99.90
45207;DHT22;30950;53.086;21.576;2023-04-03T01:16:29;0.60;99.90
45207;DHT22;30950;53.086;21.576;2023-04-03T01:19:00;0.60;99.90
45207;DHT22;30950;53.086;21.576;2023-04-03T01:21:50;0.60;99.90
45207;DHT22;30950;53.086;21.576;2023-04-03T01:24:37;0.50;99.90
45207;DHT22;30950;53.086;21.576;2023-04-03T01:27:10;0.50;99.90
45207;DHT22;30950;53.086;21.576;2023-04-03T01:29:37;0.50;99.90
45207;DHT22;30950;53.086;21.576;2023-04-03T01:32:05;0.50;99.90
45207;DHT22;30950;53.086;21.576;2023-04-03T01:34:32;0.40;99.90
45207;DHT22;30950;53.086;21.576;2023-04-03T01:37:01;0.40;99.90
45207;DHT22;30950;53.086;21.576;2023-04-03T01:39:28;0.40;99.90
45207;DHT22;30950;53.086;21.576;2023-04-03T01:41:56;0.40;99.90
45207;DHT22;30950;53.086;21.576;2023-04-03T01:44:29;0.40;99.90
45207;DHT22;30950;53.086;21.576;2023-04-03T01:46:56;0.30;99.90
45207;DHT22;30950;53.086;21.576;2023-04-03T01:49:25;0.30;99.90
45207;DHT22;30950;53.086;21.576;2023-04-03T01:51:53;0.30;99.90
45207;DHT22;30950;53.086;21.576;2023-04-03T01:54:20;0.30;99.90
45207;DHT22;30950;53.086;21.576;2023-04-03T01:56:47;0.30;99.90
45207;DHT22;30950;53.086;21.576;2023-04-03T01:59:15;0.20;99.90
45207;DHT22;30950;53.086;21.576;2023-04-03T02:01:44;0.20;99.90
45207;DHT22;30950;53.086;21.576;2023-04-03T02:04:12;0.20;99.90
45207;DHT22;30950;53.086;21.576;2023-04-03T02:06:40;0.20;99.90
45207;DHT22;30950;53.086;21.576;2023-04-03T02:09:08;0.10;99.90
45207;DHT22;30950;53.086;21.576;2023-04-03T02:11:35;0.10;99.90
45207;DHT22;30950;53.086;21.576;2023-04-03T02:14:02;0.10;99.90
45207;DHT22;30950;53.086;21.576;2023-04-03T02:16:30;0.10;99.90
45207;DHT22;30950;53.086;21.576;2023-04-03T02:18:57;0.10;99.90
45207;DHT22;30950;53.086;21.576;2023-04-03T02:21:25;0.10;99.90
45207;DHT22;30950;53.086;21.576;2023-04-03T02:23:53;0.00;99.90
45207;DHT22;30950;53.086;21.576;2023-04-03T02:26:20;0.00;99.90
45207;DHT22;30950;53.086;21.576;2023-04-03T02:28:47;0.00;99.90
45207;DHT22;30950;53.086;21.576;2023-04-03T02:31:15;0.00;99.90
45207;DHT22;30950;53.086;21.576;2023-04-03T02:33:44;0.00;99.90
45207;DHT22;30950;53.086;21.576;2023-04-03T02:36:14;-0.10;99.90
45207;DHT22;30950;53.086;21.576;2023-04-03T02:38:45;0.00;99.90
45207;DHT22;30950;53.086;21.576;2023-04-03T02:41:13;0.90;99.90
45207;DHT22;30950;53.086;21.576;2023-04-03T02:43:40;-0.10;99.90
45207;DHT22;30950;53.086;21.576;2023-04-03T02:46:08;-0.10;99.90
45207;DHT22;30950;53.086;21.576;2023-04-03T02:48:36;-0.10;99.90
45207;DHT22;30950;53.086;21.576;2023-04-03T02:51:04;-0.10;99.90
45207;DHT22;30950;53.086;21.576;2023-04-03T02:53:31;-0.20;99.90
45207;DHT22;30950;53.086;21.576;2023-04-03T02:56:03;-0.20;99.90
45207;DHT22;30950;53.086;21.576;2023-04-03T02:58:30;-0.20;99.90
45207;DHT22;30950;53.086;21.576;2023-04-03T03:00:59;-0.10;99.90
45207;DHT22;30950;53.086;21.576;2023-04-03T03:03:26;-0.20;99.90
45207;DHT22;30950;53.086;21.576;2023-04-03T03:06:15;-0.20;99.90
45207;DHT22;30950;53.086;21.576;2023-04-03T03:08:43;-0.30;99.90
45207;DHT22;30950;53.086;21.576;2023-04-03T03:11:11;-0.30;99.90
45207;DHT22;30950;53.086;21.576;2023-04-03T03:13:38;-0.30;99.90
45207;DHT22;30950;53.086;21.576;2023-04-03T03:16:07;-0.30;99.90
45207;DHT22;30950;53.086;21.576;2023-04-03T03:18:34;-0.30;99.90
45207;DHT22;30950;53.086;21.576;2023-04-03T03:21:03;-0.30;99.90
45207;DHT22;30950;53.086;21.576;2023-04-03T03:23:31;-0.40;99.90
45207;DHT22;30950;53.086;21.576;2023-04-03T03:26:07;-0.40;99.90
45207;DHT22;30950;53.086;21.576;2023-04-03T03:28:35;-0.40;99.90
45207;DHT22;30950;53.086;21.576;2023-04-03T03:31:05;-0.40;99.90
45207;DHT22;30950;53.086;21.576;2023-04-03T03:33:34;-0.40;99.90
45207;DHT22;30950;53.086;21.576;2023-04-03T03:36:02;-0.40;99.90
45207;DHT22;30950;53.086;21.576;2023-04-03T03:38:29;-1.40;99.90
45207;DHT22;30950;53.086;21.576;2023-04-03T03:40:59;-0.40;99.90
45207;DHT22;30950;53.086;21.576;2023-04-03T03:43:28;-0.50;99.90
45207;DHT22;30950;53.086;21.576;2023-04-03T03:45:56;-0.50;99.90
45207;DHT22;30950;53.086;21.576;2023-04-03T03:48:24;-0.50;99.90
45207;DHT22;30950;53.086;21.576;2023-04-03T03:50:52;-0.50;99.90
45207;DHT22;30950;53.086;21.576;2023-04-03T03:53:24;-0.50;99.90
45207;DHT22;30950;53.086;21.576;2023-04-03T03:55:53;-0.50;99.90
45207;DHT22;30950;53.086;21.576;2023-04-03T03:58:23;-0.50;99.90
45207;DHT22;30950;53.086;21.576;2023-04-03T04:00:51;-0.50;99.90
45207;DHT22;30950;53.086;21.576;2023-04-03T04:03:19;-0.60;99.90
45207;DHT22;30950;53.086;21.576;2023-04-03T04:05:48;-0.60;99.90
45207;DHT22;30950;53.086;21.576;2023-04-03T04:08:16;-0.60;99.90
45207;DHT22;30950;53.086;21.576;2023-04-03T04:10:44;-0.60;99.90
45207;DHT22;30950;53.086;21.576;2023-04-03T04:13:14;-0.60;99.90
45207;DHT22;30950;53.086;21.576;2023-04-03T04:15:42;-0.60;99.90
45207;DHT22;30950;53.086;21.576;2023-04-03T04:18:09;-0.60;99.90
45207;DHT22;30950;53.086;21.576;2023-04-03T04:20:37;-0.60;99.90
45207;DHT22;30950;53.086;21.576;2023-04-03T04:23:05;-0.60;99.90
45207;DHT22;30950;53.086;21.576;2023-04-03T04:25:32;-0.60;99.90
45207;DHT22;30950;53.086;21.576;2023-04-03T04:28:00;-0.60;99.90
45207;DHT22;30950;53.086;21.576;2023-04-03T04:30:27;-0.60;99.90
45207;DHT22;30950;53.086;21.576;2023-04-03T04:32:57;-0.60;99.90
45207;DHT22;30950;53.086;21.576;2023-04-03T04:35:25;-0.60;99.90
45207;DHT22;30950;53.086;21.576;2023-04-03T04:37:52;-0.60;99.90
45207;DHT22;30950;53.086;21.576;2023-04-03T04:40:20;-0.60;99.90
45207;DHT22;30950;53.086;21.576;2023-04-03T04:42:48;-0.60;99.90
45207;DHT22;30950;53.086;21.576;2023-04-03T04:45:16;-0.60;99.90
45207;DHT22;30950;53.086;21.576;2023-04-03T04:47:45;-0.60;99.90
45207;DHT22;30950;53.086;21.576;2023-04-03T04:50:13;-0.60;99.90
45207;DHT22;30950;53.086;21.576;2023-04-03T04:52:41;-0.60;99.90
45207;DHT22;30950;53.086;21.576;2023-04-03T04:55:09;-0.50;99.90
45207;DHT22;30950;53.086;21.576;2023-04-03T04:57:36;-0.50;99.90
45207;DHT22;30950;53.086;21.576;2023-04-03T05:00:06;-0.50;99.90
45207;DHT22;30950;53.086;21.576;2023-04-03T05:02:34;-0.50;99.90
45207;DHT22;30950;53.086;21.576;2023-04-03T05:05:02;-0.50;99.90
45207;DHT22;30950;53.086;21.576;2023-04-03T05:07:32;-0.50;99.90
45207;DHT22;30950;53.086;21.576;2023-04-03T05:10:02;-0.40;99.90
45207;DHT22;30950;53.086;21.576;2023-04-03T05:12:30;-0.40;99.90
45207;DHT22;30950;53.086;21.576;2023-04-03T05:15:00;-0.40;99.90
45207;DHT22;30950;53.086;21.576;2023-04-03T05:17:30;-0.40;99.90
45207;DHT22;30950;53.086;21.576;2023-04-03T05:19:58;-0.30;99.90
45207;DHT22;30950;53.086;21.576;2023-04-03T05:22:27;-0.30;99.90
45207;DHT22;30950;53.086;21.576;2023-04-03T05:24:59;-0.30;99.90
45207;DHT22;30950;53.086;21.576;2023-04-03T05:27:27;-0.30;99.90
45207;DHT22;30950;53.086;21.576;2023-04-03T05:29:58;-0.30;99.90
45207;DHT22;30950;53.086;21.576;2023-04-03T05:32:26;-0.30;99.90
45207;DHT22;30950;53.086;21.576;2023-04-03T05:35:10;-0.20;99.90
45207;DHT22;30950;53.086;21.576;2023-04-03T05:37:40;-0.10;99.90
45207;DHT22;30950;53.086;21.576;2023-04-03T05:40:09;-0.10;99.90
45207;DHT22;30950;53.086;21.576;2023-04-03T05:42:40;-0.10;99.90
45207;DHT22;30950;53.086;21.576;2023-04-03T05:45:07;-0.10;99.90
45207;DHT22;30950;53.086;21.576;2023-04-03T05:47:35;-0.10;99.90
45207;DHT22;30950;53.086;21.576;2023-04-03T05:50:05;-0.10;99.90
45207;DHT22;30950;53.086;21.576;2023-04-03T05:52:37;0.00;99.90
45207;DHT22;30950;53.086;21.576;2023-04-03T05:55:05;0.10;99.90
45207;DHT22;30950;53.086;21.576;2023-04-03T05:57:34;0.10;99.90
45207;DHT22;30950;53.086;21.576;2023-04-03T06:00:07;0.10;99.90
45207;DHT22;30950;53.086;21.576;2023-04-03T06:02:47;0.20;99.90
45207;DHT22;30950;53.086;21.576;2023-04-03T06:05:19;0.20;99.90
45207;DHT22;30950;53.086;21.576;2023-04-03T06:07:47;0.30;99.90
45207;DHT22;30950;53.086;21.576;2023-04-03T06:10:16;0.30;99.90
45207;DHT22;30950;53.086;21.576;2023-04-03T06:12:44;0.40;99.90
45207;DHT22;30950;53.086;21.576;2023-04-03T06:15:12;0.40;99.90
45207;DHT22;30950;53.086;21.576;2023-04-03T06:17:40;0.40;99.90
45207;DHT22;30950;53.086;21.576;2023-04-03T06:20:08;0.40;99.90
45207;DHT22;30950;53.086;21.576;2023-04-03T06:22:36;0.50;99.90
45207;DHT22;30950;53.086;21.576;2023-04-03T06:25:04;0.50;99.90
45207;DHT22;30950;53.086;21.576;2023-04-03T06:27:31;0.50;99.90
45207;DHT22;30950;53.086;21.576;2023-04-03T06:29:59;0.50;99.90
45207;DHT22;30950;53.086;21.576;2023-04-03T06:32:26;0.60;99.90
45207;DHT22;30950;53.086;21.576;2023-04-03T06:34:53;0.60;99.90
45207;DHT22;30950;53.086;21.576;2023-04-03T06:37:22;0.90;99.90
45207;DHT22;30950;53.086;21.576;2023-04-03T06:39:50;0.70;99.90
45207;DHT22;30950;53.086;21.576;2023-04-03T06:42:17;0.80;99.90
45207;DHT22;30950;53.086;21.576;2023-04-03T06:44:52;0.90;99.90
45207;DHT22;30950;53.086;21.576;2023-04-03T06:47:20;0.90;99.90
45207;DHT22;30950;53.086;21.576;2023-04-03T06:49:47;1.00;99.90
45207;DHT22;30950;53.086;21.576;2023-04-03T06:52:14;1.00;99.90
45207;DHT22;30950;53.086;21.576;2023-04-03T06:54:41;1.10;99.90
45207;DHT22;30950;53.086;21.576;2023-04-03T06:57:12;1.10;99.90
45207;DHT22;30950;53.086;21.576;2023-04-03T06:59:39;1.20;99.90
45207;DHT22;30950;53.086;21.576;2023-04-03T07:02:08;1.20;99.90
45207;DHT22;30950;53.086;21.576;2023-04-03T07:04:36;1.30;99.90
45207;DHT22;30950;53.086;21.576;2023-04-03T07:07:03;1.30;99.90
45207;DHT22;30950;53.086;21.576;2023-04-03T07:09:30;1.40;99.50
45207;DHT22;30950;53.086;21.576;2023-04-03T07:11:57;1.40;99.90
45207;DHT22;30950;53.086;21.576;2023-04-03T07:14:25;1.50;99.90
45207;DHT22;30950;53.086;21.576;2023-04-03T07:16:52;1.50;98.60
45207;DHT22;30950;53.086;21.576;2023-04-03T07:19:19;1.60;99.90
45207;DHT22;30950;53.086;21.576;2023-04-03T07:21:47;1.70;99.90
45207;DHT22;30950;53.086;21.576;2023-04-03T07:24:14;1.80;99.90
45207;DHT22;30950;53.086;21.576;2023-04-03T07:26:42;1.90;99.20
45207;DHT22;30950;53.086;21.576;2023-04-03T07:29:12;1.90;98.10
45207;DHT22;30950;53.086;21.576;2023-04-03T07:31:40;2.00;94.00
45207;DHT22;30950;53.086;21.576;2023-04-03T07:34:08;2.00;97.40
45207;DHT22;30950;53.086;21.576;2023-04-03T07:36:35;2.10;98.30
45207;DHT22;30950;53.086;21.576;2023-04-03T07:39:03;2.10;96.40
45207;DHT22;30950;53.086;21.576;2023-04-03T07:41:30;2.10;96.60
45207;DHT22;30950;53.086;21.576;2023-04-03T07:43:58;2.20;94.90
45207;DHT22;30950;53.086;21.576;2023-04-03T07:46:25;2.20;94.30
45207;DHT22;30950;53.086;21.576;2023-04-03T07:48:53;2.30;92.60
45207;DHT22;30950;53.086;21.576;2023-04-03T07:51:23;2.30;92.40
45207;DHT22;30950;53.086;21.576;2023-04-03T07:53:51;2.30;91.40
45207;DHT22;30950;53.086;21.576;2023-04-03T07:56:18;2.30;92.30
45207;DHT22;30950;53.086;21.576;2023-04-03T07:58:47;2.30;90.00
45207;DHT22;30950;53.086;21.576;2023-04-03T08:01:14;2.30;88.60
45207;DHT22;30950;53.086;21.576;2023-04-03T08:03:42;2.40;90.00
45207;DHT22;30950;53.086;21.576;2023-04-03T08:06:09;2.50;84.30
45207;DHT22;30950;53.086;21.576;2023-04-03T08:08:42;2.50;85.10
45207;DHT22;30950;53.086;21.576;2023-04-03T08:11:10;2.50;86.70
45207;DHT22;30950;53.086;21.576;2023-04-03T08:13:38;2.60;89.20
45207;DHT22;30950;53.086;21.576;2023-04-03T08:16:20;2.60;86.10
45207;DHT22;30950;53.086;21.576;2023-04-03T08:18:49;2.70;83.30
45207;DHT22;30950;53.086;21.576;2023-04-03T08:21:16;2.70;82.60
45207;DHT22;30950;53.086;21.576;2023-04-03T08:23:44;2.80;81.80
45207;DHT22;30950;53.086;21.576;2023-04-03T08:26:14;2.80;80.40
45207;DHT22;30950;53.086;21.576;2023-04-03T08:28:41;2.90;78.70
45207;DHT22;30950;53.086;21.576;2023-04-03T08:31:11;3.00;79.70
45207;DHT22;30950;53.086;21.576;2023-04-03T08:33:39;3.00;79.90
45207;DHT22;30950;53.086;21.576;2023-04-03T08:36:15;3.10;74.70
45207;DHT22;30950;53.086;21.576;2023-04-03T08:38:43;3.10;76.70
45207;DHT22;30950;53.086;21.576;2023-04-03T08:41:18;3.10;77.90
45207;DHT22;30950;53.086;21.576;2023-04-03T08:44:29;3.20;77.50
45207;DHT22;30950;53.086;21.576;2023-04-03T08:49:51;3.30;77.50
45207;DHT22;30950;53.086;21.576;2023-04-03T08:52:23;4.20;77.20
45207;DHT22;30950;53.086;21.576;2023-04-03T08:54:57;3.50;76.50
45207;DHT22;30950;53.086;21.576;2023-04-03T08:57:29;3.40;75.00
45207;DHT22;30950;53.086;21.576;2023-04-03T09:00:01;3.30;74.30
45207;DHT22;30950;53.086;21.576;2023-04-03T09:02:52;3.30;72.70
45207;DHT22;30950;53.086;21.576;2023-04-03T09:10:57;3.40;71.70
45207;DHT22;30950;53.086;21.576;2023-04-03T09:13:33;3.40;70.30
45207;DHT22;30950;53.086;21.576;2023-04-03T09:19:19;3.50;71.50
45207;DHT22;30950;53.086;21.576;2023-04-03T09:21:48;3.60;67.20
45207;DHT22;30950;53.086;21.576;2023-04-03T09:24:16;3.60;67.60
45207;DHT22;30950;53.086;21.576;2023-04-03T09:27:08;3.60;67.40
45207;DHT22;30950;53.086;21.576;2023-04-03T09:29:40;3.70;67.60
45207;DHT22;30950;53.086;21.576;2023-04-03T09:35:01;3.90;69.50
45207;DHT22;30950;53.086;21.576;2023-04-03T09:37:46;4.00;68.00
45207;DHT22;30950;53.086;21.576;2023-04-03T09:42:55;4.10;64.20
45207;DHT22;30950;53.086;21.576;2023-04-03T09:45:34;4.10;65.70
45207;DHT22;30950;53.086;21.576;2023-04-03T09:53:34;4.30;69.70
45207;DHT22;30950;53.086;21.576;2023-04-03T09:56:19;4.50;67.70
45207;DHT22;30950;53.086;21.576;2023-04-03T09:59:06;4.70;67.30
45207;DHT22;30950;53.086;21.576;2023-04-03T10:01:37;5.00;65.90
45207;DHT22;30950;53.086;21.576;2023-04-03T10:06:42;5.10;62.20
45207;DHT22;30950;53.086;21.576;2023-04-03T10:09:24;5.00;63.50
45207;DHT22;30950;53.086;21.576;2023-04-03T10:12:06;4.90;62.50
45207;DHT22;30950;53.086;21.576;2023-04-03T10:14:38;4.90;63.10
45207;DHT22;30950;53.086;21.576;2023-04-03T10:17:18;4.80;62.20
45207;DHT22;30950;53.086;21.576;2023-04-03T10:19:58;4.80;63.20
45207;DHT22;30950;53.086;21.576;2023-04-03T10:28:01;5.10;64.70
45207;DHT22;30950;53.086;21.576;2023-04-03T10:31:06;4.90;66.00
45207;DHT22;30950;53.086;21.576;2023-04-03T10:33:51;5.00;64.90
45207;DHT22;30950;53.086;21.576;2023-04-03T10:50:58;6.20;62.20
45207;DHT22;30950;53.086;21.576;2023-04-03T10:56:18;6.30;57.30
45207;DHT22;30950;53.086;21.576;2023-04-03T10:58:57;6.40;61.80
45207;DHT22;30950;53.086;21.576;2023-04-03T11:01:31;6.80;59.00
45207;DHT22;30950;53.086;21.576;2023-04-03T11:04:04;6.90;57.50
45207;DHT22;30950;53.086;21.576;2023-04-03T11:06:50;6.90;59.00
45207;DHT22;30950;53.086;21.576;2023-04-03T11:11:47;6.70;54.90
45207;DHT22;30950;53.086;21.576;2023-04-03T11:28:02;6.20;58.00
45207;DHT22;30950;53.086;21.576;2023-04-03T11:33:23;6.00;58.60
45207;DHT22;30950;53.086;21.576;2023-04-03T11:35:52;6.00;59.00
45207;DHT22;30950;53.086;21.576;2023-04-03T11:38:26;5.90;58.20
45207;DHT22;30950;53.086;21.576;2023-04-03T11:40:57;6.10;58.00
45207;DHT22;30950;53.086;21.576;2023-04-03T11:43:27;6.10;57.20
45207;DHT22;30950;53.086;21.576;2023-04-03T11:46:04;6.20;58.20
45207;DHT22;30950;53.086;21.576;2023-04-03T11:54:34;6.10;56.90
45207;DHT22;30950;53.086;21.576;2023-04-03T11:57:44;6.10;58.90
45207;DHT22;30950;53.086;21.576;2023-04-03T12:08:47;6.70;56.30
45207;DHT22;30950;53.086;21.576;2023-04-03T12:11:29;6.60;54.80
45207;DHT22;30950;53.086;21.576;2023-04-03T12:48:26;6.50;57.30
45207;DHT22;30950;53.086;21.576;2023-04-03T12:50:54;6.40;57.60
45207;DHT22;30950;53.086;21.576;2023-04-03T12:53:25;6.40;57.00
45207;DHT22;30950;53.086;21.576;2023-04-03T12:55:56;6.40;56.50
45207;DHT22;30950;53.086;21.576;2023-04-03T12:58:26;6.60;58.00
45207;DHT22;30950;53.086;21.576;2023-04-03T13:01:12;6.60;54.90
45207;DHT22;30950;53.086;21.576;2023-04-03T13:03:44;6.60;55.70
45207;DHT22;30950;53.086;21.576;2023-04-03T13:06:32;6.60;55.60
45207;DHT22;30950;53.086;21.576;2023-04-03T13:09:03;6.50;56.50
45207;DHT22;30950;53.086;21.576;2023-04-03T13:11:35;6.40;55.80
45207;DHT22;30950;53.086;21.576;2023-04-03T13:14:05;6.60;56.90
45207;DHT22;30950;53.086;21.576;2023-04-03T13:16:33;6.40;56.60
45207;DHT22;30950;53.086;21.576;2023-04-03T13:19:00;6.30;56.70
45207;DHT22;30950;53.086;21.576;2023-04-03T13:21:30;6.60;57.50
45207;DHT22;30950;53.086;21.576;2023-04-03T13:24:01;6.80;54.30
45207;DHT22;30950;53.086;21.576;2023-04-03T13:26:42;6.90;53.70
45207;DHT22;30950;53.086;21.576;2023-04-03T13:29:36;7.20;55.40
45207;DHT22;30950;53.086;21.576;2023-04-03T13:32:06;8.00;55.80
45207;DHT22;30950;53.086;21.576;2023-04-03T13:34:40;8.40;54.40
45207;DHT22;30950;53.086;21.576;2023-04-03T13:37:20;8.40;53.60
45207;DHT22;30950;53.086;21.576;2023-04-03T13:39:59;8.30;54.10
45207;DHT22;30950;53.086;21.576;2023-04-03T13:42:44;8.00;53.70
45207;DHT22;30950;53.086;21.576;2023-04-03T13:45:23;7.70;54.00
45207;DHT22;30950;53.086;21.576;2023-04-03T13:48:07;7.50;54.30
45207;DHT22;30950;53.086;21.576;2023-04-03T13:53:22;8.00;53.90
45207;DHT22;30950;53.086;21.576;2023-04-03T13:55:54;8.00;53.20
45207;DHT22;30950;53.086;21.576;2023-04-03T13:58:27;8.00;54.00
45207;DHT22;30950;53.086;21.576;2023-04-03T14:03:52;7.90;53.00
45207;DHT22;30950;53.086;21.576;2023-04-03T14:06:20;7.80;52.60
45207;DHT22;30950;53.086;21.576;2023-04-03T14:08:48;7.70;53.50
45207;DHT22;30950;53.086;21.576;2023-04-03T14:11:19;7.60;52.80
45207;DHT22;30950;53.086;21.576;2023-04-03T14:13:48;7.50;54.00
45207;DHT22;30950;53.086;21.576;2023-04-03T14:16:23;7.20;54.50
45207;DHT22;30950;53.086;21.576;2023-04-03T14:18:51;7.00;54.40
45207;DHT22;30950;53.086;21.576;2023-04-03T14:21:19;6.80;54.90
45207;DHT22;30950;53.086;21.576;2023-04-03T14:23:48;6.50;55.00
45207;DHT22;30950;53.086;21.576;2023-04-03T14:26:21;6.40;55.90
45207;DHT22;30950;53.086;21.576;2023-04-03T14:28:52;6.00;55.80
45207;DHT22;30950;53.086;21.576;2023-04-03T14:31:20;6.40;55.50
45207;DHT22;30950;53.086;21.576;2023-04-03T14:33:48;6.30;55.30
45207;DHT22;30950;53.086;21.576;2023-04-03T14:38:44;6.20;56.20
45207;DHT22;30950;53.086;21.576;2023-04-03T14:41:13;6.10;56.00
45207;DHT22;30950;53.086;21.576;2023-04-03T14:43:45;6.00;55.90
45207;DHT22;30950;53.086;21.576;2023-04-03T14:46:16;5.90;56.20
45207;DHT22;30950;53.086;21.576;2023-04-03T14:48:44;5.80;57.30
45207;DHT22;30950;53.086;21.576;2023-04-03T14:51:13;5.80;57.70
45207;DHT22;30950;53.086;21.576;2023-04-03T14:53:42;5.90;57.80
45207;DHT22;30950;53.086;21.576;2023-04-03T14:56:19;6.40;57.90
45207;DHT22;30950;53.086;21.576;2023-04-03T14:58:57;6.00;57.40
45207;DHT22;30950;53.086;21.576;2023-04-03T15:01:26;6.00;56.80
45207;DHT22;30950;53.086;21.576;2023-04-03T15:03:54;6.00;57.20
45207;DHT22;30950;53.086;21.576;2023-04-03T15:06:21;5.90;57.00
45207;DHT22;30950;53.086;21.576;2023-04-03T15:08:49;5.90;57.70
45207;DHT22;30950;53.086;21.576;2023-04-03T15:11:16;5.80;58.00
45207;DHT22;30950;53.086;21.576;2023-04-03T15:13:44;5.80;58.40
45207;DHT22;30950;53.086;21.576;2023-04-03T15:16:19;5.80;58.10
45207;DHT22;30950;53.086;21.576;2023-04-03T15:18:47;5.70;57.70
45207;DHT22;30950;53.086;21.576;2023-04-03T15:21:14;5.60;57.20
45207;DHT22;30950;53.086;21.576;2023-04-03T15:23:42;5.50;58.00
45207;DHT22;30950;53.086;21.576;2023-04-03T15:26:09;5.40;57.50
45207;DHT22;30950;53.086;21.576;2023-04-03T15:28:39;5.30;58.00
45207;DHT22;30950;53.086;21.576;2023-04-03T15:31:07;5.30;57.90
45207;DHT22;30950;53.086;21.576;2023-04-03T15:33:36;5.20;58.20
45207;DHT22;30950;53.086;21.576;2023-04-03T15:36:03;5.30;58.70
45207;DHT22;30950;53.086;21.576;2023-04-03T15:38:38;5.30;58.00
45207;DHT22;30950;53.086;21.576;2023-04-03T15:41:05;5.30;57.80
45207;DHT22;30950;53.086;21.576;2023-04-03T15:43:32;5.20;58.00
45207;DHT22;30950;53.086;21.576;2023-04-03T15:46:03;5.50;58.40
45207;DHT22;30950;53.086;21.576;2023-04-03T15:48:31;5.50;58.40
45207;DHT22;30950;53.086;21.576;2023-04-03T15:50:59;5.20;58.50
45207;DHT22;30950;53.086;21.576;2023-04-03T15:53:27;5.70;57.70
45207;DHT22;30950;53.086;21.576;2023-04-03T15:55:54;5.10;56.90
45207;DHT22;30950;53.086;21.576;2023-04-03T15:58:21;5.10;56.90
45207;DHT22;30950;53.086;21.576;2023-04-03T16:00:48;5.00;56.90
45207;DHT22;30950;53.086;21.576;2023-04-03T16:03:18;5.10;57.70
45207;DHT22;30950;53.086;21.576;2023-04-03T16:05:46;6.00;58.00
45207;DHT22;30950;53.086;21.576;2023-04-03T16:08:14;5.00;57.60
45207;DHT22;30950;53.086;21.576;2023-04-03T16:10:43;5.00;57.70
45207;DHT22;30950;53.086;21.576;2023-04-03T16:13:12;5.00;57.80
45207;DHT22;30950;53.086;21.576;2023-04-03T16:15:39;5.00;58.20
45207;DHT22;30950;53.086;21.576;2023-04-03T16:18:08;5.00;58.40
45207;DHT22;30950;53.086;21.576;2023-04-03T16:20:36;5.00;58.50
45207;DHT22;30950;53.086;21.576;2023-04-03T16:23:04;5.00;58.60
45207;DHT22;30950;53.086;21.576;2023-04-03T16:25:31;4.90;58.40
45207;DHT22;30950;53.086;21.576;2023-04-03T16:27:59;5.20;59.10
45207;DHT22;30950;53.086;21.576;2023-04-03T16:30:26;4.90;58.80
45207;DHT22;30950;53.086;21.576;2023-04-03T16:32:53;4.90;59.00
45207;DHT22;30950;53.086;21.576;2023-04-03T16:35:22;4.80;59.20
45207;DHT22;30950;53.086;21.576;2023-04-03T16:37:49;4.90;59.50
45207;DHT22;30950;53.086;21.576;2023-04-03T16:40:17;4.80;59.50
45207;DHT22;30950;53.086;21.576;2023-04-03T16:42:44;4.80;59.90
45207;DHT22;30950;53.086;21.576;2023-04-03T16:45:12;4.80;59.20
45207;DHT22;30950;53.086;21.576;2023-04-03T16:47:40;4.90;59.70
45207;DHT22;30950;53.086;21.576;2023-04-03T16:50:08;4.70;59.60
45207;DHT22;30950;53.086;21.576;2023-04-03T16:52:36;4.70;59.60
45207;DHT22;30950;53.086;21.576;2023-04-03T16:55:03;4.60;59.80
45207;DHT22;30950;53.086;21.576;2023-04-03T16:57:30;4.60;60.00
45207;DHT22;30950;53.086;21.576;2023-04-03T16:59:57;5.00;60.60
45207;DHT22;30950;53.086;21.576;2023-04-03T17:02:25;4.60;59.80
45207;DHT22;30950;53.086;21.576;2023-04-03T17:04:53;4.50;60.60
45207;DHT22;30950;53.086;21.576;2023-04-03T17:07:22;4.40;60.60
45207;DHT22;30950;53.086;21.576;2023-04-03T17:09:50;4.50;60.90
45207;DHT22;30950;53.086;21.576;2023-04-03T17:12:19;4.40;61.20
45207;DHT22;30950;53.086;21.576;2023-04-03T17:14:46;4.40;61.70
45207;DHT22;30950;53.086;21.576;2023-04-03T17:17:15;4.40;62.00
45207;DHT22;30950;53.086;21.576;2023-04-03T17:19:45;4.40;62.50
45207;DHT22;30950;53.086;21.576;2023-04-03T17:22:12;4.30;62.70
45207;DHT22;30950;53.086;21.576;2023-04-03T17:24:39;4.30;63.10
45207;DHT22;30950;53.086;21.576;2023-04-03T17:27:07;4.20;63.40
45207;DHT22;30950;53.086;21.576;2023-04-03T17:29:34;5.00;64.20
45207;DHT22;30950;53.086;21.576;2023-04-03T17:32:01;4.20;64.20
45207;DHT22;30950;53.086;21.576;2023-04-03T17:34:29;4.10;64.60
45207;DHT22;30950;53.086;21.576;2023-04-03T17:36:56;4.10;65.60
45207;DHT22;30950;53.086;21.576;2023-04-03T17:39:23;4.00;66.60
45207;DHT22;30950;53.086;21.576;2023-04-03T17:41:51;4.00;67.80
45207;DHT22;30950;53.086;21.576;2023-04-03T17:44:21;3.90;69.10
45207;DHT22;30950;53.086;21.576;2023-04-03T17:46:48;3.90;70.70
45207;DHT22;30950;53.086;21.576;2023-04-03T17:49:16;3.90;71.50
45207;DHT22;30950;53.086;21.576;2023-04-03T17:51:45;3.90;73.50